createdAt,value
2023-02-23T00:01:28.660Z,101000.16
2023-02-23T00:03:57.536Z,101007.94
2023-02-23T00:06:26.736Z,101007.09
2023-02-23T00:08:53.879Z,101001.97
2023-02-23T00:11:21.455Z,101002.72
2023-02-23T00:13:52.554Z,100994.25
2023-02-23T00:16:21.982Z,100998.63
2023-02-23T00:19:00.451Z,100991.91
2023-02-23T00:21:30.049Z,100996.25
2023-02-23T00:23:59.754Z,100995.50
2023-02-23T00:26:31.640Z,100994.69
2023-02-23T00:28:58.498Z,100989.47
2023-02-23T00:31:27.306Z,100993.66
2023-02-23T00:33:55.649Z,100996.25
2023-02-23T00:36:25.385Z,100990.22
2023-02-23T00:38:58.262Z,100989.25
2023-02-23T00:41:30.421Z,100994.44
2023-02-23T00:43:59.599Z,100982.38
2023-02-23T00:46:28.891Z,100985.06
2023-02-23T00:48:57.261Z,100987.66
2023-02-23T00:51:32.703Z,100987.78
2023-02-23T00:54:00.539Z,100986.94
2023-02-23T00:56:28.199Z,100984.34
2023-02-23T00:58:55.452Z,100986.16
2023-02-23T01:01:22.654Z,100980.97
2023-02-23T01:03:49.273Z,100985.38
2023-02-23T01:06:17.709Z,100980.25
2023-02-23T01:08:50.568Z,100981.09
2023-02-23T01:11:21.462Z,100980.25
2023-02-23T01:13:49.262Z,100979.28
2023-02-23T01:16:18.102Z,100976.56
2023-02-23T01:18:45.659Z,100976.56
2023-02-23T01:21:21.215Z,100978.38
2023-02-23T01:23:48.074Z,100975.78
2023-02-23T01:26:25.914Z,100983.53
2023-02-23T01:28:55.562Z,100979.22
2023-02-23T01:31:23.983Z,100984.38
2023-02-23T01:33:54.878Z,100979.22
2023-02-23T01:36:21.731Z,100984.38
2023-02-23T01:38:49.261Z,100982.59
2023-02-23T01:41:16.709Z,100977.41
2023-02-23T01:43:55.564Z,100981.69
2023-02-23T01:46:22.373Z,100984.22
2023-02-23T01:48:49.844Z,100980.00
2023-02-23T01:51:21.096Z,100980.00
2023-02-23T01:53:56.243Z,100980.91
2023-02-23T01:56:27.762Z,100974.88
2023-02-23T01:58:58.000Z,100984.34
2023-02-23T02:01:24.960Z,100979.16
2023-02-23T02:04:06.892Z,100976.63
2023-02-23T02:06:36.377Z,100984.38
2023-02-23T02:09:08.973Z,100984.34
2023-02-23T02:11:37.262Z,100976.56
2023-02-23T02:14:12.969Z,100975.72
2023-02-23T02:17:10.266Z,100980.00
2023-02-23T02:20:15.538Z,100975.72
2023-02-23T02:23:16.313Z,100977.47
2023-02-23T02:25:48.925Z,100980.97
2023-02-23T02:28:43.378Z,100983.69
2023-02-23T02:31:28.155Z,100978.56
2023-02-23T02:34:25.986Z,100982.84
2023-02-23T02:37:07.482Z,100977.72
2023-02-23T02:39:53.636Z,100975.16
2023-02-23T02:42:29.442Z,100969.03
2023-02-23T02:45:30.774Z,100975.13
2023-02-23T02:48:06.367Z,100976.88
2023-02-23T02:50:48.121Z,100971.78
2023-02-23T02:53:21.301Z,100972.63
2023-02-23T02:55:49.251Z,100968.34
2023-02-23T02:58:17.870Z,100973.47
2023-02-23T03:01:06.626Z,100970.88
2023-02-23T03:03:51.869Z,100972.63
2023-02-23T03:06:47.804Z,100973.59
2023-02-23T03:09:45.094Z,100973.59
2023-02-23T03:12:47.794Z,100973.59
2023-02-23T03:16:11.749Z,100974.44
2023-02-23T03:19:25.140Z,100972.75
2023-02-23T03:22:26.218Z,100971.03
2023-02-23T03:25:21.087Z,100977.06
2023-02-23T03:28:34.193Z,100970.22
2023-02-23T03:31:49.542Z,100978.00
2023-02-23T03:34:52.460Z,100983.19
2023-02-23T03:37:49.621Z,100984.88
2023-02-23T03:40:42.135Z,100985.78
2023-02-23T03:43:35.171Z,100985.78
2023-02-23T03:46:23.500Z,100989.38
2023-02-23T03:49:12.466Z,100982.50
2023-02-23T03:52:00.911Z,100986.84
2023-02-23T03:54:57.931Z,100982.50
2023-02-23T03:57:46.405Z,100987.63
2023-02-23T04:00:38.562Z,100980.78
2023-02-23T04:03:26.774Z,100987.84
2023-02-23T04:06:14.611Z,100988.78
2023-02-23T04:09:00.732Z,100990.47
2023-02-23T04:12:10.891Z,100993.91
2023-02-23T04:14:49.464Z,100987.06
2023-02-23T04:17:17.118Z,101000.94
2023-02-23T04:19:54.961Z,101001.81
2023-02-23T04:22:23.115Z,101003.56
2023-02-23T04:24:51.034Z,101002.72
2023-02-23T04:27:18.473Z,101003.63
2023-02-23T04:29:45.218Z,101001.03
2023-02-23T04:32:17.906Z,101000.13
2023-02-23T04:34:45.427Z,101009.59
2023-02-23T04:37:13.250Z,101005.25
2023-02-23T04:39:39.877Z,101007.00
2023-02-23T04:42:06.453Z,100997.53
2023-02-23T04:44:32.976Z,101005.38
2023-02-23T04:46:59.478Z,101005.25
2023-02-23T04:49:26.030Z,101006.94
2023-02-23T04:51:52.511Z,101005.19
2023-02-23T04:54:19.030Z,101003.50
2023-02-23T04:56:45.496Z,101008.63
2023-02-23T04:59:12.525Z,101006.94
2023-02-23T05:01:39.080Z,101006.03
2023-02-23T05:04:05.659Z,101000.00
2023-02-23T05:06:32.759Z,101012.06
2023-02-23T05:08:59.276Z,101012.13
2023-02-23T05:11:27.845Z,101003.44
2023-02-23T05:13:54.681Z,101012.91
2023-02-23T05:16:21.518Z,101009.47
2023-02-23T05:18:48.748Z,101009.53
2023-02-23T05:21:15.329Z,101010.38
2023-02-23T05:23:42.031Z,101012.97
2023-02-23T05:26:12.988Z,101016.47
2023-02-23T05:28:42.021Z,101018.16
2023-02-23T05:31:09.434Z,101019.97
2023-02-23T05:33:43.093Z,101019.19
2023-02-23T05:36:12.799Z,101014.84
2023-02-23T05:38:41.562Z,101018.28
2023-02-23T05:41:14.002Z,101014.91
2023-02-23T05:43:40.713Z,101015.78
2023-02-23T05:46:14.734Z,101018.38
2023-02-23T05:48:41.298Z,101019.22
2023-02-23T05:51:10.819Z,101010.75
2023-02-23T05:53:37.988Z,101020.25
2023-02-23T05:56:06.334Z,101018.66
2023-02-23T05:58:33.002Z,101020.34
2023-02-23T06:00:59.726Z,101026.38
2023-02-23T06:03:26.705Z,101027.25
2023-02-23T06:05:55.360Z,101031.53
2023-02-23T06:08:21.906Z,101037.59
2023-02-23T06:10:48.864Z,101029.78
2023-02-23T06:13:16.404Z,101038.41
2023-02-23T06:15:43.998Z,101042.97
2023-02-23T06:18:10.984Z,101039.47
2023-02-23T06:20:40.288Z,101040.38
2023-02-23T06:23:07.626Z,101045.44
2023-02-23T06:25:34.532Z,101049.13
2023-02-23T06:28:01.040Z,101046.66
2023-02-23T06:30:27.587Z,101053.59
2023-02-23T06:32:54.160Z,101059.50
2023-02-23T06:35:20.794Z,101062.19
2023-02-23T06:37:47.310Z,101063.78
2023-02-23T06:40:14.366Z,101067.25
2023-02-23T06:42:40.870Z,101075.06
2023-02-23T06:45:07.753Z,101067.25
2023-02-23T06:47:36.827Z,101067.34
2023-02-23T06:50:04.066Z,101078.63
2023-02-23T06:52:30.613Z,101076.06
2023-02-23T06:54:57.357Z,101079.50
2023-02-23T06:57:23.904Z,101074.31
2023-02-23T06:59:50.624Z,101087.34
2023-02-23T07:02:17.855Z,101090.13
2023-02-23T07:04:44.415Z,101090.25
2023-02-23T07:07:11.955Z,101093.75
2023-02-23T07:09:42.915Z,101098.84
2023-02-23T07:12:10.644Z,101092.06
2023-02-23T07:14:37.761Z,101099.94
2023-02-23T07:17:05.635Z,101106.88
2023-02-23T07:19:34.887Z,101106.97
2023-02-23T07:22:01.416Z,101115.66
2023-02-23T07:24:28.381Z,101110.94
2023-02-23T07:26:55.263Z,101114.47
2023-02-23T07:29:24.028Z,101115.41
2023-02-23T07:31:50.878Z,101115.41
2023-02-23T07:34:17.612Z,101114.75
2023-02-23T07:36:44.219Z,101120.81
2023-02-23T07:39:10.813Z,101119.19
2023-02-23T07:41:37.637Z,101124.38
2023-02-23T07:44:04.486Z,101124.38
2023-02-23T07:46:31.027Z,101127.69
2023-02-23T07:48:57.749Z,101125.00
2023-02-23T07:51:24.558Z,101129.22
2023-02-23T07:53:51.081Z,101132.72
2023-02-23T07:56:17.709Z,101137.84
2023-02-23T07:58:47.389Z,101143.84
2023-02-23T08:01:14.435Z,101144.72
2023-02-23T08:03:41.107Z,101142.97
2023-02-23T08:06:07.944Z,101143.75
2023-02-23T08:08:35.510Z,101144.75
2023-02-23T08:11:03.800Z,101139.75
2023-02-23T08:13:32.154Z,101142.38
2023-02-23T08:15:59.700Z,101149.19
2023-02-23T08:18:26.445Z,101147.47
2023-02-23T08:20:58.653Z,101150.03
2023-02-23T08:23:25.317Z,101154.38
2023-02-23T08:25:53.834Z,101163.00
2023-02-23T08:28:20.418Z,101160.38
2023-02-23T08:30:47.051Z,101166.31
2023-02-23T08:33:13.697Z,101164.56
2023-02-23T08:35:40.183Z,101166.25
2023-02-23T08:38:07.352Z,101165.41
2023-02-23T08:40:33.886Z,101175.81
2023-02-23T08:43:00.458Z,101172.41
2023-02-23T08:45:29.384Z,101166.31
2023-02-23T08:47:56.301Z,101171.28
2023-02-23T08:50:25.264Z,101172.81
2023-02-23T08:52:54.007Z,101177.81
2023-02-23T08:55:21.801Z,101174.28
2023-02-23T08:57:48.730Z,101183.72
2023-02-23T09:00:16.926Z,101178.41
2023-02-23T09:02:47.730Z,101182.78
2023-02-23T09:05:14.889Z,101180.19
2023-02-23T09:07:45.001Z,101184.38
2023-02-23T09:10:19.903Z,101182.63
2023-02-23T09:12:46.455Z,101182.56
2023-02-23T09:15:13.100Z,101192.06
2023-02-23T09:17:39.676Z,101193.63
2023-02-23T09:20:06.602Z,101199.72
2023-02-23T09:22:36.936Z,101193.84
2023-02-23T09:25:04.924Z,101193.88
2023-02-23T09:27:31.515Z,101200.81
2023-02-23T09:29:58.064Z,101192.81
2023-02-23T09:32:24.662Z,101199.00
2023-02-23T09:34:52.513Z,101195.53
2023-02-23T09:37:19.020Z,101198.13
2023-02-23T09:39:45.797Z,101195.47
2023-02-23T09:42:44.100Z,101199.41
2023-02-23T09:45:29.789Z,101212.41
2023-02-23T09:48:22.570Z,101207.97
2023-02-23T09:50:55.160Z,101217.09
2023-02-23T09:53:34.624Z,101224.91
2023-02-23T09:56:06.883Z,101225.53
2023-02-23T09:58:35.171Z,101227.34
2023-02-23T10:01:32.204Z,101228.19
2023-02-23T10:04:14.906Z,101235.81
2023-02-23T10:06:45.568Z,101235.13
2023-02-23T10:09:25.188Z,101232.00
2023-02-23T10:12:10.142Z,101243.31
2023-02-23T10:14:52.988Z,101241.78
2023-02-23T10:17:57.780Z,101243.63
2023-02-23T10:20:46.798Z,101250.59
2023-02-23T10:23:21.614Z,101253.19
2023-02-23T10:25:50.949Z,101252.44
2023-02-23T10:28:21.852Z,101252.28
2023-02-23T10:30:50.394Z,101252.13
2023-02-23T10:33:30.995Z,101252.28
2023-02-23T10:36:13.641Z,101265.09
2023-02-23T10:38:40.559Z,101257.47
2023-02-23T10:41:07.675Z,101265.94
2023-02-23T10:43:34.226Z,101250.41
2023-02-23T10:46:01.369Z,101253.75
2023-02-23T10:48:43.235Z,101254.63
2023-02-23T10:51:25.404Z,101258.50
2023-02-23T10:53:53.011Z,101260.59
2023-02-23T10:56:22.724Z,101259.06
2023-02-23T10:58:51.957Z,101266.97
2023-02-23T11:01:49.188Z,101265.09
2023-02-23T11:04:32.677Z,101264.38
2023-02-23T11:07:09.844Z,101261.94
2023-02-23T11:09:46.463Z,101267.81
2023-02-23T11:12:29.690Z,101268.44
2023-02-23T11:14:58.151Z,101270.75
2023-02-23T11:17:35.396Z,101278.38
2023-02-23T11:20:06.479Z,101273.81
2023-02-23T11:22:36.207Z,101274.56
2023-02-23T11:25:12.958Z,101278.00
2023-02-23T11:27:39.803Z,101272.88
2023-02-23T11:30:07.767Z,101264.34
2023-02-23T11:32:42.476Z,101263.47
2023-02-23T11:35:12.121Z,101266.03
2023-02-23T11:37:38.682Z,101254.69
2023-02-23T11:40:31.851Z,101265.09
2023-02-23T11:43:14.762Z,101263.34
2023-02-23T11:45:53.473Z,101268.78
2023-02-23T11:48:34.774Z,101267.91
2023-02-23T11:51:02.259Z,101266.28
2023-02-23T11:53:35.172Z,101263.75
2023-02-23T11:56:07.953Z,101263.69
2023-02-23T11:58:39.426Z,101262.91
2023-02-23T12:01:12.309Z,101262.00
2023-02-23T12:03:47.989Z,101260.41
2023-02-23T12:06:36.998Z,101255.97
2023-02-23T12:09:23.277Z,101254.22
2023-02-23T12:12:05.425Z,101252.31
2023-02-23T12:14:53.649Z,101242.78
2023-02-23T12:17:27.021Z,101248.03
2023-02-23T12:20:02.426Z,101245.72
2023-02-23T12:22:35.318Z,101246.59
2023-02-23T12:25:05.147Z,101242.28
2023-02-23T12:27:46.551Z,101249.91
2023-02-23T12:30:42.431Z,101254.13
2023-02-23T12:33:15.465Z,101252.41
2023-02-23T12:35:58.698Z,101261.16
2023-02-23T12:39:06.933Z,101252.44
2023-02-23T12:41:51.495Z,101248.00
2023-02-23T12:44:35.497Z,101249.56
2023-02-23T12:47:21.030Z,101241.84
2023-02-23T12:50:04.715Z,101248.13
2023-02-23T12:52:36.961Z,101249.03
2023-02-23T12:55:09.477Z,101252.28
2023-02-23T12:57:55.574Z,101252.38
2023-02-23T13:00:59.227Z,101248.88
2023-02-23T13:03:44.944Z,101252.13
2023-02-23T13:06:50.335Z,101249.84
2023-02-23T13:09:35.656Z,101253.19
2023-02-23T13:12:23.607Z,101245.22
2023-02-23T13:15:12.788Z,101255.59
2023-02-23T13:17:45.930Z,101250.41
2023-02-23T13:20:27.690Z,101260.78
2023-02-23T13:23:18.067Z,101261.63
2023-02-23T13:26:24.979Z,101252.16
2023-02-23T13:28:58.714Z,101252.13
2023-02-23T13:31:29.889Z,101258.31
2023-02-23T13:33:58.924Z,101264.25
2023-02-23T13:36:29.517Z,101268.69
2023-02-23T13:39:22.496Z,101259.28
2023-02-23T13:42:04.389Z,101265.41
2023-02-23T13:44:58.966Z,101253.28
2023-02-23T13:47:57.484Z,101254.22
2023-02-23T13:50:51.710Z,101255.06
2023-02-23T13:53:47.886Z,101255.00
2023-02-23T13:56:20.125Z,101256.59
2023-02-23T13:58:51.845Z,101258.44
2023-02-23T14:01:25.990Z,101248.09
2023-02-23T14:03:55.924Z,101259.31
2023-02-23T14:06:25.998Z,101265.44
2023-02-23T14:09:00.731Z,101256.81
2023-02-23T14:11:29.961Z,101268.84
2023-02-23T14:14:02.929Z,101268.06
2023-02-23T14:16:30.083Z,101266.31
2023-02-23T14:19:12.430Z,101267.28
2023-02-23T14:22:02.664Z,101258.50
2023-02-23T14:24:32.336Z,101260.19
2023-02-23T14:27:08.637Z,101261.03
2023-02-23T14:30:05.273Z,101260.09
2023-02-23T14:32:38.570Z,101265.34
2023-02-23T14:35:05.682Z,101268.91
2023-02-23T14:37:58.583Z,101263.78
2023-02-23T14:40:32.827Z,101269.13
2023-02-23T14:43:03.334Z,101263.94
2023-02-23T14:45:32.977Z,101269.06
2023-02-23T14:48:05.369Z,101266.38
2023-02-23T14:50:35.308Z,101267.28
2023-02-23T14:53:04.452Z,101267.06
2023-02-23T14:55:35.399Z,101267.06
2023-02-23T14:58:21.206Z,101255.53
2023-02-23T15:00:49.090Z,101257.13
2023-02-23T15:03:15.564Z,101257.84
2023-02-23T15:05:47.469Z,101263.00
2023-02-23T15:08:17.228Z,101273.50
2023-02-23T15:10:46.645Z,101269.31
2023-02-23T15:13:31.865Z,101271.06
2023-02-23T15:16:03.832Z,101262.50
2023-02-23T15:18:36.414Z,101272.03
2023-02-23T15:21:19.796Z,101271.13
2023-02-23T15:23:51.086Z,101274.78
2023-02-23T15:26:32.264Z,101276.41
2023-02-23T15:29:13.594Z,101281.59
2023-02-23T15:31:50.166Z,101281.63
2023-02-23T15:34:22.023Z,101274.78
2023-02-23T15:36:54.563Z,101278.25
2023-02-23T15:39:35.381Z,101273.81
2023-02-23T15:42:05.693Z,101278.25
2023-02-23T15:44:43.562Z,101270.44
2023-02-23T15:47:22.004Z,101274.00
2023-02-23T15:49:50.267Z,101274.06
2023-02-23T15:52:24.114Z,101274.09
2023-02-23T15:55:01.588Z,101269.91
2023-02-23T15:57:52.606Z,101272.34
2023-02-23T16:00:32.495Z,101269.00
2023-02-23T16:03:02.562Z,101274.28
2023-02-23T16:05:41.869Z,101266.56
2023-02-23T16:08:24.910Z,101266.63
2023-02-23T16:11:03.883Z,101266.63
2023-02-23T16:13:30.725Z,101265.72
2023-02-23T16:15:57.586Z,101264.78
2023-02-23T16:18:37.254Z,101265.63
2023-02-23T16:21:05.012Z,101263.09
2023-02-23T16:23:44.614Z,101269.06
2023-02-23T16:26:19.389Z,101274.28
2023-02-23T16:28:47.182Z,101272.59
2023-02-23T16:31:20.254Z,101274.34
2023-02-23T16:33:57.138Z,101260.47
2023-02-23T16:36:33.477Z,101273.44
2023-02-23T16:39:02.502Z,101276.19
2023-02-23T16:41:31.569Z,101274.53
2023-02-23T16:44:00.797Z,101274.59
2023-02-23T16:46:37.739Z,101277.38
2023-02-23T16:49:10.214Z,101278.31
2023-02-23T16:51:36.903Z,101275.78
2023-02-23T16:54:04.110Z,101281.00
2023-02-23T16:56:31.282Z,101277.56
2023-02-23T16:59:03.079Z,101276.69
2023-02-23T17:01:29.689Z,101284.44
2023-02-23T17:03:56.377Z,101280.13
2023-02-23T17:06:23.308Z,101284.44
2023-02-23T17:08:57.586Z,101291.25
2023-02-23T17:11:25.789Z,101299.13
2023-02-23T17:13:52.326Z,101294.13
2023-02-23T17:16:19.767Z,101289.81
2023-02-23T17:18:46.627Z,101295.81
2023-02-23T17:21:23.745Z,101293.22
2023-02-23T17:23:51.921Z,101292.38
2023-02-23T17:26:23.613Z,101304.53
2023-02-23T17:28:51.495Z,101304.56
2023-02-23T17:31:20.137Z,101306.34
2023-02-23T17:33:47.591Z,101308.94
2023-02-23T17:36:16.403Z,101315.09
2023-02-23T17:38:46.419Z,101310.88
2023-02-23T17:41:19.229Z,101313.56
2023-02-23T17:43:46.242Z,101316.03
2023-02-23T17:46:13.627Z,101311.91
2023-02-23T17:48:40.915Z,101316.25
2023-02-23T17:51:12.091Z,101316.31
2023-02-23T17:53:39.965Z,101317.06
2023-02-23T17:56:06.927Z,101317.88
2023-02-23T17:58:33.689Z,101314.44
2023-02-23T18:01:02.274Z,101320.41
2023-02-23T18:03:32.137Z,101314.44
2023-02-23T18:06:01.086Z,101317.78
2023-02-23T18:08:30.250Z,101323.66
2023-02-23T18:10:57.523Z,101321.00
2023-02-23T18:13:24.992Z,101311.53
2023-02-23T18:15:53.535Z,101314.97
2023-02-23T18:18:21.495Z,101312.47
2023-02-23T18:20:52.322Z,101316.75
2023-02-23T18:23:19.900Z,101317.75
2023-02-23T18:25:47.102Z,101318.69
2023-02-23T18:28:14.799Z,101319.63
2023-02-23T18:30:42.386Z,101317.81
2023-02-23T18:33:12.415Z,101326.53
2023-02-23T18:35:42.939Z,101327.38
2023-02-23T18:38:14.793Z,101329.97
2023-02-23T18:40:41.925Z,101328.22
2023-02-23T18:43:08.730Z,101335.13
2023-02-23T18:45:35.321Z,101329.06
2023-02-23T18:48:01.938Z,101341.25
2023-02-23T18:50:28.552Z,101332.53
2023-02-23T18:52:56.581Z,101321.25
2023-02-23T18:55:26.260Z,101325.50
2023-02-23T18:57:52.864Z,101329.81
2023-02-23T19:00:20.434Z,101321.97
2023-02-23T19:02:47.608Z,101319.38
2023-02-23T19:05:15.645Z,101316.75
2023-02-23T19:07:42.637Z,101315.91
2023-02-23T19:10:12.303Z,101309.84
2023-02-23T19:12:39.709Z,101302.03
2023-02-23T19:15:08.225Z,101310.66
2023-02-23T19:17:35.943Z,101314.97
2023-02-23T19:20:02.562Z,101314.97
2023-02-23T19:22:29.752Z,101320.94
2023-02-23T19:24:56.286Z,101321.00
2023-02-23T19:27:23.027Z,101320.09
2023-02-23T19:29:49.581Z,101318.41
2023-02-23T19:32:18.888Z,101314.13
2023-02-23T19:34:48.052Z,101315.91
2023-02-23T19:37:14.671Z,101318.34
2023-02-23T19:39:41.323Z,101315.03
2023-02-23T19:42:08.714Z,101323.66
2023-02-23T19:44:35.233Z,101315.88
2023-02-23T19:47:01.770Z,101322.78
2023-02-23T19:49:28.346Z,101318.50
2023-02-23T19:51:54.868Z,101320.16
2023-02-23T19:54:21.716Z,101316.63
2023-02-23T19:56:49.980Z,101318.28
2023-02-23T19:59:18.743Z,101314.84
2023-02-23T20:01:46.290Z,101319.16
2023-02-23T20:04:12.954Z,101319.97
2023-02-23T20:06:44.753Z,101315.69
2023-02-23T20:09:11.695Z,101315.63
2023-02-23T20:11:38.213Z,101319.09
2023-02-23T20:14:05.243Z,101318.34
2023-02-23T20:16:31.947Z,101326.06
2023-02-23T20:18:59.126Z,101327.72
2023-02-23T20:21:30.672Z,101320.84
2023-02-23T20:23:57.879Z,101323.44
2023-02-23T20:26:28.017Z,101329.47
2023-02-23T20:28:56.267Z,101333.75
2023-02-23T20:31:26.504Z,101327.81
2023-02-23T20:33:56.076Z,101325.31
2023-02-23T20:36:23.524Z,101331.84
2023-02-23T20:38:50.251Z,101332.84
2023-02-23T20:41:17.602Z,101326.09
2023-02-23T20:43:45.371Z,101330.00
2023-02-23T20:46:13.675Z,101334.59
2023-02-23T20:48:40.961Z,101331.13
2023-02-23T20:51:12.912Z,101335.72
2023-02-23T20:53:46.641Z,101335.03
2023-02-23T20:56:16.506Z,101332.47
2023-02-23T20:58:43.814Z,101342.91
2023-02-23T21:01:22.976Z,101341.31
2023-02-23T21:03:51.860Z,101344.00
2023-02-23T21:06:20.106Z,101350.13
2023-02-23T21:08:49.301Z,101353.59
2023-02-23T21:11:17.755Z,101344.91
2023-02-23T21:13:44.497Z,101340.63
2023-02-23T21:16:15.274Z,101340.75
2023-02-23T21:18:42.758Z,101335.78
2023-02-23T21:21:10.264Z,101335.81
2023-02-23T21:23:45.322Z,101331.47
2023-02-23T21:26:16.037Z,101342.81
2023-02-23T21:28:44.866Z,101342.88
2023-02-23T21:31:13.565Z,101342.06
2023-02-23T21:33:42.003Z,101338.75
2023-02-23T21:36:10.686Z,101337.91
2023-02-23T21:38:42.432Z,101346.47
2023-02-23T21:41:10.062Z,101346.53
2023-02-23T21:43:38.311Z,101344.84
2023-02-23T21:46:14.139Z,101342.28
2023-02-23T21:48:41.885Z,101337.13
2023-02-23T21:51:14.343Z,101329.47
2023-02-23T21:53:41.595Z,101333.72
2023-02-23T21:56:17.189Z,101337.88
2023-02-23T21:58:47.441Z,101336.97
2023-02-23T22:01:16.174Z,101336.13
2023-02-23T22:03:44.818Z,101331.81
2023-02-23T22:06:19.358Z,101320.56
2023-02-23T22:08:47.612Z,101322.31
2023-02-23T22:11:17.636Z,101325.75
2023-02-23T22:13:48.783Z,101323.16
2023-02-23T22:16:17.870Z,101323.97
2023-02-23T22:18:44.667Z,101325.00
2023-02-23T22:21:12.725Z,101327.56
2023-02-23T22:23:48.033Z,101321.56
2023-02-23T22:26:14.655Z,101322.41
2023-02-23T22:28:41.231Z,101312.94
2023-02-23T22:31:12.118Z,101312.94
2023-02-23T22:33:41.778Z,101306.00
2023-02-23T22:36:13.426Z,101300.84
2023-02-23T22:38:43.576Z,101301.78
2023-02-23T22:41:11.736Z,101312.19
2023-02-23T22:43:40.137Z,101309.50
2023-02-23T22:46:07.936Z,101303.47
2023-02-23T22:48:36.296Z,101310.50
2023-02-23T22:51:03.374Z,101310.63
2023-02-23T22:53:30.338Z,101311.50
2023-02-23T22:55:57.300Z,101312.44
2023-02-23T22:58:26.521Z,101319.28
2023-02-23T23:01:03.948Z,101326.25
2023-02-23T23:03:42.588Z,101332.28
2023-02-23T23:06:10.965Z,101320.41
2023-02-23T23:08:40.786Z,101327.25
2023-02-23T23:11:16.411Z,101324.72
2023-02-23T23:13:45.760Z,101326.56
2023-02-23T23:16:29.112Z,101324.88
2023-02-23T23:19:12.297Z,101325.69
2023-02-23T23:21:42.029Z,101322.31
2023-02-23T23:24:13.362Z,101329.19
2023-02-23T23:26:41.095Z,101327.41
2023-02-23T23:29:11.426Z,101320.47
2023-02-23T23:31:39.895Z,101324.72
2023-02-23T23:34:11.963Z,101323.81
2023-02-23T23:36:43.115Z,101324.69
2023-02-23T23:39:15.338Z,101313.72
2023-02-23T23:41:43.496Z,101312.06
2023-02-23T23:44:10.800Z,101308.56
2023-02-23T23:46:38.994Z,101305.97
2023-02-23T23:49:11.123Z,101304.22
2023-02-23T23:51:45.047Z,101300.81
2023-02-23T23:54:14.903Z,101300.69
2023-02-23T23:56:41.925Z,101290.31
2023-02-23T23:59:11.108Z,101290.28
